sensor_id;sensor_type;location;lat;lon;timestamp;P1;durP1;ratioP1;P2;durP2;ratioP2
18720;SDS011;9489;50.948;3.114;2024-03-23T00:54:38;24.90;;;19.17;;
18720;SDS011;9489;50.948;3.114;2024-03-23T00:57:04;24.73;;;19.30;;
18720;SDS011;9489;50.948;3.114;2024-03-23T00:59:29;26.20;;;19.20;;
18720;SDS011;9489;50.948;3.114;2024-03-23T01:01:56;29.50;;;19.05;;
18720;SDS011;9489;50.948;3.114;2024-03-23T01:04:21;29.17;;;20.20;;
18720;SDS011;9489;50.948;3.114;2024-03-23T01:06:47;30.08;;;20.10;;
18720;SDS011;9489;50.948;3.114;2024-03-23T01:09:13;28.33;;;18.70;;
18720;SDS011;9489;50.948;3.114;2024-03-23T01:11:39;28.40;;;18.73;;
18720;SDS011;9489;50.948;3.114;2024-03-23T01:14:05;23.02;;;16.80;;
18720;SDS011;9489;50.948;3.114;2024-03-23T01:16:31;21.60;;;17.08;;
18720;SDS011;9489;50.948;3.114;2024-03-23T01:18:57;21.52;;;15.77;;
18720;SDS011;9489;50.948;3.114;2024-03-23T01:21:23;25.10;;;16.52;;
18720;SDS011;9489;50.948;3.114;2024-03-23T01:23:49;24.48;;;15.57;;
18720;SDS011;9489;50.948;3.114;2024-03-23T01:26:15;20.02;;;14.40;;
18720;SDS011;9489;50.948;3.114;2024-03-23T01:28:40;20.23;;;14.05;;
18720;SDS011;9489;50.948;3.114;2024-03-23T01:31:06;25.50;;;14.82;;
18720;SDS011;9489;50.948;3.114;2024-03-23T01:33:32;24.95;;;14.40;;
18720;SDS011;9489;50.948;3.114;2024-03-23T01:35:57;21.33;;;14.25;;
18720;SDS011;9489;50.948;3.114;2024-03-23T01:38:23;21.65;;;14.50;;
18720;SDS011;9489;50.948;3.114;2024-03-23T01:40:49;18.95;;;14.80;;
18720;SDS011;9489;50.948;3.114;2024-03-23T01:43:14;20.73;;;13.85;;
18720;SDS011;9489;50.948;3.114;2024-03-23T01:45:40;20.73;;;13.65;;
18720;SDS011;9489;50.948;3.114;2024-03-23T01:48:06;19.58;;;13.50;;
18720;SDS011;9489;50.948;3.114;2024-03-23T01:50:31;25.10;;;13.82;;
18720;SDS011;9489;50.948;3.114;2024-03-23T01:52:59;16.25;;;12.25;;
18720;SDS011;9489;50.948;3.114;2024-03-23T01:55:27;17.83;;;11.25;;
18720;SDS011;9489;50.948;3.114;2024-03-23T01:57:55;18.13;;;12.48;;
18720;SDS011;9489;50.948;3.114;2024-03-23T02:00:21;14.07;;;10.85;;
18720;SDS011;9489;50.948;3.114;2024-03-23T02:02:48;16.70;;;9.82;;
18720;SDS011;9489;50.948;3.114;2024-03-23T02:05:13;15.48;;;8.07;;
18720;SDS011;9489;50.948;3.114;2024-03-23T02:07:39;10.30;;;7.20;;
18720;SDS011;9489;50.948;3.114;2024-03-23T02:10:07;12.50;;;6.90;;
18720;SDS011;9489;50.948;3.114;2024-03-23T02:12:34;12.63;;;7.40;;
18720;SDS011;9489;50.948;3.114;2024-03-23T02:15:00;10.73;;;5.20;;
18720;SDS011;9489;50.948;3.114;2024-03-23T02:17:26;12.57;;;5.50;;
18720;SDS011;9489;50.948;3.114;2024-03-23T02:19:52;9.40;;;4.55;;
18720;SDS011;9489;50.948;3.114;2024-03-23T02:22:18;10.00;;;5.07;;
18720;SDS011;9489;50.948;3.114;2024-03-23T02:24:44;10.18;;;4.68;;
18720;SDS011;9489;50.948;3.114;2024-03-23T02:27:09;13.30;;;4.90;;
18720;SDS011;9489;50.948;3.114;2024-03-23T02:29:36;12.80;;;5.55;;
18720;SDS011;9489;50.948;3.114;2024-03-23T02:32:02;8.98;;;3.95;;
18720;SDS011;9489;50.948;3.114;2024-03-23T02:34:28;7.15;;;3.80;;
18720;SDS011;9489;50.948;3.114;2024-03-23T02:36:54;8.52;;;4.38;;
18720;SDS011;9489;50.948;3.114;2024-03-23T02:39:19;13.13;;;3.85;;
18720;SDS011;9489;50.948;3.114;2024-03-23T02:41:45;9.80;;;4.43;;
18720;SDS011;9489;50.948;3.114;2024-03-23T02:44:10;8.38;;;3.75;;
18720;SDS011;9489;50.948;3.114;2024-03-23T02:46:39;10.57;;;3.90;;
18720;SDS011;9489;50.948;3.114;2024-03-23T02:49:04;13.65;;;4.30;;
18720;SDS011;9489;50.948;3.114;2024-03-23T02:51:30;10.88;;;3.28;;
18720;SDS011;9489;50.948;3.114;2024-03-23T02:53:56;7.85;;;3.55;;
18720;SDS011;9489;50.948;3.114;2024-03-23T02:56:22;8.40;;;3.05;;
18720;SDS011;9489;50.948;3.114;2024-03-23T02:58:48;9.63;;;3.53;;
18720;SDS011;9489;50.948;3.114;2024-03-23T03:01:13;10.88;;;3.30;;
18720;SDS011;9489;50.948;3.114;2024-03-23T03:03:39;9.48;;;2.88;;
18720;SDS011;9489;50.948;3.114;2024-03-23T03:06:05;11.07;;;3.05;;
18720;SDS011;9489;50.948;3.114;2024-03-23T03:08:31;9.88;;;3.67;;
18720;SDS011;9489;50.948;3.114;2024-03-23T03:10:56;8.18;;;3.30;;
18720;SDS011;9489;50.948;3.114;2024-03-23T03:13:22;9.43;;;3.55;;
18720;SDS011;9489;50.948;3.114;2024-03-23T03:15:47;8.70;;;3.60;;
18720;SDS011;9489;50.948;3.114;2024-03-23T03:18:13;8.52;;;3.13;;
18720;SDS011;9489;50.948;3.114;2024-03-23T03:20:39;11.77;;;3.42;;
18720;SDS011;9489;50.948;3.114;2024-03-23T03:23:05;13.40;;;3.72;;
18720;SDS011;9489;50.948;3.114;2024-03-23T03:25:31;11.32;;;3.85;;
18720;SDS011;9489;50.948;3.114;2024-03-23T03:27:57;11.13;;;3.10;;
18720;SDS011;9489;50.948;3.114;2024-03-23T03:30:22;13.30;;;3.50;;
18720;SDS011;9489;50.948;3.114;2024-03-23T03:32:49;11.15;;;3.00;;
18720;SDS011;9489;50.948;3.114;2024-03-23T03:35:15;8.18;;;3.13;;
18720;SDS011;9489;50.948;3.114;2024-03-23T03:37:40;13.40;;;2.95;;
18720;SDS011;9489;50.948;3.114;2024-03-23T03:40:06;13.85;;;3.50;;
18720;SDS011;9489;50.948;3.114;2024-03-23T03:42:34;11.18;;;3.67;;
18720;SDS011;9489;50.948;3.114;2024-03-23T03:45:00;10.70;;;3.22;;
18720;SDS011;9489;50.948;3.114;2024-03-23T03:47:26;13.90;;;3.42;;
18720;SDS011;9489;50.948;3.114;2024-03-23T03:49:51;8.23;;;2.72;;
18720;SDS011;9489;50.948;3.114;2024-03-23T03:52:17;8.75;;;2.70;;
18720;SDS011;9489;50.948;3.114;2024-03-23T03:54:42;13.30;;;3.17;;
18720;SDS011;9489;50.948;3.114;2024-03-23T03:57:08;9.10;;;3.22;;
18720;SDS011;9489;50.948;3.114;2024-03-23T03:59:34;15.00;;;3.67;;
18720;SDS011;9489;50.948;3.114;2024-03-23T04:01:59;10.40;;;3.25;;
18720;SDS011;9489;50.948;3.114;2024-03-23T04:04:25;9.20;;;2.92;;
18720;SDS011;9489;50.948;3.114;2024-03-23T04:06:57;9.98;;;3.40;;
18720;SDS011;9489;50.948;3.114;2024-03-23T04:09:27;12.00;;;3.95;;
18720;SDS011;9489;50.948;3.114;2024-03-23T04:11:53;11.15;;;3.15;;
18720;SDS011;9489;50.948;3.114;2024-03-23T04:14:19;15.88;;;3.38;;
18720;SDS011;9489;50.948;3.114;2024-03-23T04:16:44;8.75;;;3.42;;
18720;SDS011;9489;50.948;3.114;2024-03-23T04:19:10;10.57;;;3.28;;
18720;SDS011;9489;50.948;3.114;2024-03-23T04:21:36;13.02;;;3.72;;
18720;SDS011;9489;50.948;3.114;2024-03-23T04:24:03;10.00;;;3.90;;
18720;SDS011;9489;50.948;3.114;2024-03-23T04:26:29;12.50;;;3.72;;
18720;SDS011;9489;50.948;3.114;2024-03-23T04:28:54;12.68;;;3.95;;
18720;SDS011;9489;50.948;3.114;2024-03-23T04:31:20;12.50;;;4.65;;
18720;SDS011;9489;50.948;3.114;2024-03-23T04:33:46;16.10;;;3.13;;
18720;SDS011;9489;50.948;3.114;2024-03-23T04:36:12;11.60;;;4.13;;
18720;SDS011;9489;50.948;3.114;2024-03-23T04:38:38;11.77;;;3.53;;
18720;SDS011;9489;50.948;3.114;2024-03-23T04:41:03;10.05;;;3.30;;
18720;SDS011;9489;50.948;3.114;2024-03-23T04:43:29;11.57;;;3.88;;
18720;SDS011;9489;50.948;3.114;2024-03-23T04:45:55;12.18;;;3.05;;
18720;SDS011;9489;50.948;3.114;2024-03-23T04:48:21;9.73;;;3.20;;
18720;SDS011;9489;50.948;3.114;2024-03-23T04:50:48;8.40;;;3.10;;
18720;SDS011;9489;50.948;3.114;2024-03-23T04:53:14;10.25;;;3.00;;
18720;SDS011;9489;50.948;3.114;2024-03-23T04:55:41;9.95;;;2.90;;
18720;SDS011;9489;50.948;3.114;2024-03-23T04:58:08;11.98;;;4.25;;
18720;SDS011;9489;50.948;3.114;2024-03-23T05:00:33;10.90;;;2.83;;
18720;SDS011;9489;50.948;3.114;2024-03-23T05:02:59;9.32;;;3.05;;
18720;SDS011;9489;50.948;3.114;2024-03-23T05:05:25;9.20;;;3.05;;
18720;SDS011;9489;50.948;3.114;2024-03-23T05:07:50;12.70;;;3.13;;
18720;SDS011;9489;50.948;3.114;2024-03-23T05:10:16;10.88;;;3.42;;
18720;SDS011;9489;50.948;3.114;2024-03-23T05:12:42;13.73;;;3.88;;
18720;SDS011;9489;50.948;3.114;2024-03-23T05:15:09;10.00;;;3.47;;
18720;SDS011;9489;50.948;3.114;2024-03-23T05:17:35;12.80;;;3.05;;
18720;SDS011;9489;50.948;3.114;2024-03-23T05:20:02;11.85;;;3.58;;
18720;SDS011;9489;50.948;3.114;2024-03-23T05:22:29;10.43;;;2.92;;
18720;SDS011;9489;50.948;3.114;2024-03-23T05:24:54;11.32;;;3.22;;
18720;SDS011;9489;50.948;3.114;2024-03-23T05:27:20;9.90;;;2.72;;
18720;SDS011;9489;50.948;3.114;2024-03-23T05:29:46;10.00;;;3.45;;
18720;SDS011;9489;50.948;3.114;2024-03-23T05:32:12;30.00;;;26.80;;
18720;SDS011;9489;50.948;3.114;2024-03-23T05:34:38;69.55;;;61.30;;
18720;SDS011;9489;50.948;3.114;2024-03-23T05:37:03;87.22;;;78.10;;
18720;SDS011;9489;50.948;3.114;2024-03-23T05:39:29;124.45;;;111.85;;
18720;SDS011;9489;50.948;3.114;2024-03-23T05:41:55;140.75;;;126.38;;
18720;SDS011;9489;50.948;3.114;2024-03-23T05:44:20;144.82;;;129.88;;
18720;SDS011;9489;50.948;3.114;2024-03-23T05:46:46;131.27;;;118.25;;
18720;SDS011;9489;50.948;3.114;2024-03-23T05:49:13;137.18;;;122.90;;
18720;SDS011;9489;50.948;3.114;2024-03-23T05:51:40;131.32;;;117.15;;
18720;SDS011;9489;50.948;3.114;2024-03-23T05:54:06;159.23;;;122.03;;
18720;SDS011;9489;50.948;3.114;2024-03-23T05:56:32;158.48;;;116.57;;
18720;SDS011;9489;50.948;3.114;2024-03-23T05:58:58;184.85;;;136.80;;
18720;SDS011;9489;50.948;3.114;2024-03-23T06:01:23;164.85;;;124.97;;
18720;SDS011;9489;50.948;3.114;2024-03-23T06:03:49;115.20;;;82.00;;
18720;SDS011;9489;50.948;3.114;2024-03-23T06:06:16;103.90;;;75.00;;
18720;SDS011;9489;50.948;3.114;2024-03-23T06:08:41;98.45;;;75.47;;
18720;SDS011;9489;50.948;3.114;2024-03-23T06:11:07;115.15;;;100.88;;
18720;SDS011;9489;50.948;3.114;2024-03-23T06:13:33;119.75;;;94.57;;
18720;SDS011;9489;50.948;3.114;2024-03-23T06:16:00;94.18;;;73.60;;
18720;SDS011;9489;50.948;3.114;2024-03-23T06:18:26;44.65;;;32.65;;
18720;SDS011;9489;50.948;3.114;2024-03-23T06:20:52;41.78;;;30.48;;
18720;SDS011;9489;50.948;3.114;2024-03-23T06:23:18;25.30;;;17.60;;
18720;SDS011;9489;50.948;3.114;2024-03-23T06:25:45;25.35;;;14.00;;
18720;SDS011;9489;50.948;3.114;2024-03-23T06:28:11;16.35;;;8.23;;
18720;SDS011;9489;50.948;3.114;2024-03-23T06:30:37;20.77;;;9.07;;
18720;SDS011;9489;50.948;3.114;2024-03-23T06:33:03;16.63;;;8.35;;
18720;SDS011;9489;50.948;3.114;2024-03-23T06:35:30;15.88;;;8.25;;
18720;SDS011;9489;50.948;3.114;2024-03-23T06:37:56;15.93;;;6.60;;
18720;SDS011;9489;50.948;3.114;2024-03-23T06:40:23;15.38;;;8.45;;
18720;SDS011;9489;50.948;3.114;2024-03-23T06:42:49;17.77;;;10.02;;
18720;SDS011;9489;50.948;3.114;2024-03-23T06:45:14;21.05;;;12.98;;
18720;SDS011;9489;50.948;3.114;2024-03-23T06:47:42;17.70;;;9.75;;
18720;SDS011;9489;50.948;3.114;2024-03-23T06:50:07;13.57;;;5.47;;
18720;SDS011;9489;50.948;3.114;2024-03-23T06:52:35;11.05;;;5.35;;
18720;SDS011;9489;50.948;3.114;2024-03-23T06:55:01;10.45;;;3.50;;
18720;SDS011;9489;50.948;3.114;2024-03-23T06:57:29;10.25;;;3.20;;
18720;SDS011;9489;50.948;3.114;2024-03-23T06:59:55;6.55;;;2.85;;
18720;SDS011;9489;50.948;3.114;2024-03-23T07:02:20;6.55;;;2.92;;
18720;SDS011;9489;50.948;3.114;2024-03-23T07:04:46;7.75;;;3.05;;
18720;SDS011;9489;50.948;3.114;2024-03-23T07:07:12;12.20;;;3.45;;
18720;SDS011;9489;50.948;3.114;2024-03-23T07:09:38;6.60;;;2.63;;
18720;SDS011;9489;50.948;3.114;2024-03-23T07:12:03;9.63;;;3.50;;
18720;SDS011;9489;50.948;3.114;2024-03-23T07:14:29;8.27;;;2.85;;
18720;SDS011;9489;50.948;3.114;2024-03-23T07:16:55;8.25;;;2.90;;
18720;SDS011;9489;50.948;3.114;2024-03-23T07:19:21;10.18;;;3.28;;
18720;SDS011;9489;50.948;3.114;2024-03-23T07:21:47;10.50;;;3.60;;
18720;SDS011;9489;50.948;3.114;2024-03-23T07:24:13;10.43;;;2.67;;
18720;SDS011;9489;50.948;3.114;2024-03-23T07:26:40;7.15;;;2.38;;
18720;SDS011;9489;50.948;3.114;2024-03-23T07:29:06;8.23;;;2.38;;
18720;SDS011;9489;50.948;3.114;2024-03-23T07:31:32;5.72;;;2.28;;
18720;SDS011;9489;50.948;3.114;2024-03-23T07:33:57;5.72;;;2.17;;
18720;SDS011;9489;50.948;3.114;2024-03-23T07:36:23;8.57;;;2.78;;
18720;SDS011;9489;50.948;3.114;2024-03-23T07:38:49;6.13;;;2.20;;
18720;SDS011;9489;50.948;3.114;2024-03-23T07:41:16;6.75;;;2.00;;
18720;SDS011;9489;50.948;3.114;2024-03-23T07:43:43;6.20;;;2.00;;
18720;SDS011;9489;50.948;3.114;2024-03-23T07:46:09;4.57;;;2.00;;
18720;SDS011;9489;50.948;3.114;2024-03-23T07:48:37;10.63;;;3.65;;
18720;SDS011;9489;50.948;3.114;2024-03-23T07:51:03;6.50;;;2.60;;
18720;SDS011;9489;50.948;3.114;2024-03-23T07:53:33;6.75;;;2.53;;
18720;SDS011;9489;50.948;3.114;2024-03-23T07:56:07;4.38;;;2.15;;
18720;SDS011;9489;50.948;3.114;2024-03-23T07:58:35;6.68;;;2.35;;
18720;SDS011;9489;50.948;3.114;2024-03-23T08:01:05;7.75;;;2.13;;
18720;SDS011;9489;50.948;3.114;2024-03-23T08:03:34;8.70;;;2.40;;
18720;SDS011;9489;50.948;3.114;2024-03-23T08:08:36;6.55;;;2.67;;
18720;SDS011;9489;50.948;3.114;2024-03-23T08:11:02;7.18;;;2.15;;
18720;SDS011;9489;50.948;3.114;2024-03-23T08:13:28;8.73;;;2.30;;
18720;SDS011;9489;50.948;3.114;2024-03-23T08:15:58;7.38;;;2.30;;
18720;SDS011;9489;50.948;3.114;2024-03-23T08:18:24;7.78;;;2.35;;
18720;SDS011;9489;50.948;3.114;2024-03-23T08:20:59;5.90;;;1.92;;
18720;SDS011;9489;50.948;3.114;2024-03-23T08:23:30;7.57;;;2.45;;
18720;SDS011;9489;50.948;3.114;2024-03-23T08:26:05;6.95;;;2.30;;
18720;SDS011;9489;50.948;3.114;2024-03-23T08:28:35;7.22;;;2.15;;
18720;SDS011;9489;50.948;3.114;2024-03-23T08:31:01;6.22;;;2.38;;
18720;SDS011;9489;50.948;3.114;2024-03-23T08:33:28;5.63;;;2.25;;
18720;SDS011;9489;50.948;3.114;2024-03-23T08:38:26;7.18;;;2.33;;
18720;SDS011;9489;50.948;3.114;2024-03-23T08:40:58;5.72;;;2.88;;
18720;SDS011;9489;50.948;3.114;2024-03-23T08:43:24;8.90;;;2.25;;
18720;SDS011;9489;50.948;3.114;2024-03-23T08:45:50;7.13;;;2.20;;
18720;SDS011;9489;50.948;3.114;2024-03-23T08:48:17;5.57;;;2.00;;
18720;SDS011;9489;50.948;3.114;2024-03-23T08:50:45;7.10;;;2.33;;
18720;SDS011;9489;50.948;3.114;2024-03-23T08:53:11;6.20;;;2.20;;
18720;SDS011;9489;50.948;3.114;2024-03-23T08:55:37;5.20;;;1.90;;
18720;SDS011;9489;50.948;3.114;2024-03-23T08:58:02;6.32;;;2.40;;
18720;SDS011;9489;50.948;3.114;2024-03-23T09:00:29;8.77;;;2.90;;
18720;SDS011;9489;50.948;3.114;2024-03-23T09:02:55;8.07;;;2.78;;
18720;SDS011;9489;50.948;3.114;2024-03-23T09:05:22;7.72;;;3.03;;
18720;SDS011;9489;50.948;3.114;2024-03-23T09:07:49;9.38;;;2.78;;
18720;SDS011;9489;50.948;3.114;2024-03-23T09:10:15;6.63;;;2.75;;
18720;SDS011;9489;50.948;3.114;2024-03-23T09:12:40;6.13;;;2.47;;
18720;SDS011;9489;50.948;3.114;2024-03-23T09:15:06;6.63;;;2.55;;
18720;SDS011;9489;50.948;3.114;2024-03-23T09:17:32;7.15;;;2.95;;
18720;SDS011;9489;50.948;3.114;2024-03-23T09:19:57;6.43;;;2.30;;
18720;SDS011;9489;50.948;3.114;2024-03-23T09:22:23;6.53;;;2.88;;
18720;SDS011;9489;50.948;3.114;2024-03-23T09:24:49;6.93;;;2.88;;
18720;SDS011;9489;50.948;3.114;2024-03-23T09:27:14;7.22;;;2.45;;
18720;SDS011;9489;50.948;3.114;2024-03-23T09:29:40;3.92;;;2.47;;
18720;SDS011;9489;50.948;3.114;2024-03-23T09:32:05;7.25;;;2.60;;
18720;SDS011;9489;50.948;3.114;2024-03-23T09:34:31;6.47;;;2.50;;
18720;SDS011;9489;50.948;3.114;2024-03-23T09:36:58;4.43;;;2.10;;
18720;SDS011;9489;50.948;3.114;2024-03-23T09:39:23;6.72;;;2.55;;
18720;SDS011;9489;50.948;3.114;2024-03-23T09:41:49;10.00;;;3.47;;
18720;SDS011;9489;50.948;3.114;2024-03-23T09:44:14;8.43;;;3.22;;
18720;SDS011;9489;50.948;3.114;2024-03-23T09:46:40;7.07;;;2.72;;
18720;SDS011;9489;50.948;3.114;2024-03-23T09:49:09;5.20;;;2.53;;
18720;SDS011;9489;50.948;3.114;2024-03-23T09:51:35;6.35;;;2.22;;
18720;SDS011;9489;50.948;3.114;2024-03-23T09:54:02;7.82;;;2.33;;
18720;SDS011;9489;50.948;3.114;2024-03-23T09:56:27;6.30;;;2.00;;
18720;SDS011;9489;50.948;3.114;2024-03-23T09:59:00;4.80;;;1.83;;
18720;SDS011;9489;50.948;3.114;2024-03-23T10:01:29;5.03;;;1.70;;
18720;SDS011;9489;50.948;3.114;2024-03-23T10:03:55;7.38;;;2.05;;
18720;SDS011;9489;50.948;3.114;2024-03-23T10:06:22;7.20;;;2.00;;
18720;SDS011;9489;50.948;3.114;2024-03-23T10:08:50;5.03;;;1.70;;
18720;SDS011;9489;50.948;3.114;2024-03-23T10:11:16;3.63;;;1.90;;
18720;SDS011;9489;50.948;3.114;2024-03-23T10:13:43;4.28;;;1.98;;
18720;SDS011;9489;50.948;3.114;2024-03-23T10:16:09;6.28;;;1.90;;
18720;SDS011;9489;50.948;3.114;2024-03-23T10:18:38;4.03;;;1.67;;
18720;SDS011;9489;50.948;3.114;2024-03-23T10:23:30;4.60;;;1.80;;
18720;SDS011;9489;50.948;3.114;2024-03-23T10:31:28;6.32;;;1.92;;
18720;SDS011;9489;50.948;3.114;2024-03-23T10:33:55;4.88;;;1.75;;
18720;SDS011;9489;50.948;3.114;2024-03-23T10:36:21;6.13;;;2.13;;
18720;SDS011;9489;50.948;3.114;2024-03-23T10:38:49;5.00;;;1.70;;
18720;SDS011;9489;50.948;3.114;2024-03-23T10:41:15;6.25;;;1.90;;
18720;SDS011;9489;50.948;3.114;2024-03-23T10:43:42;3.60;;;1.50;;
18720;SDS011;9489;50.948;3.114;2024-03-23T10:46:09;5.10;;;1.80;;
18720;SDS011;9489;50.948;3.114;2024-03-23T10:48:35;6.40;;;1.85;;
18720;SDS011;9489;50.948;3.114;2024-03-23T10:51:01;5.35;;;1.65;;
18720;SDS011;9489;50.948;3.114;2024-03-23T10:53:27;4.78;;;2.05;;
18720;SDS011;9489;50.948;3.114;2024-03-23T10:55:54;5.70;;;1.60;;
18720;SDS011;9489;50.948;3.114;2024-03-23T10:58:26;9.30;;;2.15;;
18720;SDS011;9489;50.948;3.114;2024-03-23T11:00:55;5.13;;;1.65;;
18720;SDS011;9489;50.948;3.114;2024-03-23T11:03:35;5.07;;;1.83;;
18720;SDS011;9489;50.948;3.114;2024-03-23T11:06:05;6.03;;;1.92;;
18720;SDS011;9489;50.948;3.114;2024-03-23T11:08:34;3.78;;;1.70;;
18720;SDS011;9489;50.948;3.114;2024-03-23T11:13:48;6.15;;;2.13;;
18720;SDS011;9489;50.948;3.114;2024-03-23T11:16:28;6.05;;;1.85;;
18720;SDS011;9489;50.948;3.114;2024-03-23T11:22:03;5.30;;;1.85;;
18720;SDS011;9489;50.948;3.114;2024-03-23T11:24:30;3.30;;;1.70;;
18720;SDS011;9489;50.948;3.114;2024-03-23T11:26:56;3.97;;;1.73;;
18720;SDS011;9489;50.948;3.114;2024-03-23T11:29:28;5.75;;;1.83;;
18720;SDS011;9489;50.948;3.114;2024-03-23T11:31:54;4.68;;;1.75;;
18720;SDS011;9489;50.948;3.114;2024-03-23T11:34:20;2.47;;;1.35;;
18720;SDS011;9489;50.948;3.114;2024-03-23T11:36:47;5.78;;;1.83;;
18720;SDS011;9489;50.948;3.114;2024-03-23T11:39:14;4.90;;;1.58;;
18720;SDS011;9489;50.948;3.114;2024-03-23T11:41:47;5.25;;;2.20;;
18720;SDS011;9489;50.948;3.114;2024-03-23T11:44:17;8.57;;;1.92;;
18720;SDS011;9489;50.948;3.114;2024-03-23T11:46:44;4.95;;;1.58;;
18720;SDS011;9489;50.948;3.114;2024-03-23T11:49:25;4.78;;;1.73;;
18720;SDS011;9489;50.948;3.114;2024-03-23T11:51:52;4.38;;;2.03;;
18720;SDS011;9489;50.948;3.114;2024-03-23T11:54:23;3.97;;;1.50;;
18720;SDS011;9489;50.948;3.114;2024-03-23T11:57:02;4.13;;;1.70;;
18720;SDS011;9489;50.948;3.114;2024-03-23T12:02:09;5.13;;;1.67;;
18720;SDS011;9489;50.948;3.114;2024-03-23T12:04:36;3.75;;;1.52;;
18720;SDS011;9489;50.948;3.114;2024-03-23T12:07:36;3.95;;;1.42;;
18720;SDS011;9489;50.948;3.114;2024-03-23T12:10:04;3.40;;;1.30;;
18720;SDS011;9489;50.948;3.114;2024-03-23T12:12:33;4.15;;;1.35;;
18720;SDS011;9489;50.948;3.114;2024-03-23T12:15:06;7.15;;;2.53;;
18720;SDS011;9489;50.948;3.114;2024-03-23T12:17:33;5.28;;;1.58;;
18720;SDS011;9489;50.948;3.114;2024-03-23T12:20:00;3.85;;;1.50;;
18720;SDS011;9489;50.948;3.114;2024-03-23T12:22:26;5.00;;;1.73;;
18720;SDS011;9489;50.948;3.114;2024-03-23T12:24:52;4.30;;;1.38;;
18720;SDS011;9489;50.948;3.114;2024-03-23T12:27:18;3.38;;;1.60;;
18720;SDS011;9489;50.948;3.114;2024-03-23T12:29:43;3.83;;;2.00;;
18720;SDS011;9489;50.948;3.114;2024-03-23T12:32:11;5.82;;;1.52;;
18720;SDS011;9489;50.948;3.114;2024-03-23T12:34:38;4.53;;;1.65;;
18720;SDS011;9489;50.948;3.114;2024-03-23T12:37:03;4.95;;;1.67;;
18720;SDS011;9489;50.948;3.114;2024-03-23T12:39:31;5.03;;;1.50;;
18720;SDS011;9489;50.948;3.114;2024-03-23T12:41:57;3.35;;;1.50;;
18720;SDS011;9489;50.948;3.114;2024-03-23T12:44:22;4.60;;;1.40;;
18720;SDS011;9489;50.948;3.114;2024-03-23T12:46:48;4.15;;;1.52;;
18720;SDS011;9489;50.948;3.114;2024-03-23T12:49:13;4.60;;;1.60;;
18720;SDS011;9489;50.948;3.114;2024-03-23T12:51:41;4.57;;;1.77;;
18720;SDS011;9489;50.948;3.114;2024-03-23T12:54:13;3.45;;;1.40;;
18720;SDS011;9489;50.948;3.114;2024-03-23T12:56:39;3.17;;;1.48;;
18720;SDS011;9489;50.948;3.114;2024-03-23T12:59:04;7.05;;;1.80;;
18720;SDS011;9489;50.948;3.114;2024-03-23T13:01:30;5.38;;;1.70;;
18720;SDS011;9489;50.948;3.114;2024-03-23T13:03:56;4.72;;;2.00;;
18720;SDS011;9489;50.948;3.114;2024-03-23T13:06:21;9.25;;;2.22;;
18720;SDS011;9489;50.948;3.114;2024-03-23T13:08:47;4.82;;;2.05;;
18720;SDS011;9489;50.948;3.114;2024-03-23T13:11:15;4.25;;;1.83;;
18720;SDS011;9489;50.948;3.114;2024-03-23T13:13:40;4.82;;;1.63;;
18720;SDS011;9489;50.948;3.114;2024-03-23T13:16:07;4.68;;;1.40;;
18720;SDS011;9489;50.948;3.114;2024-03-23T13:18:33;4.32;;;1.77;;
18720;SDS011;9489;50.948;3.114;2024-03-23T13:20:59;4.50;;;1.95;;
18720;SDS011;9489;50.948;3.114;2024-03-23T13:23:24;4.55;;;1.75;;
18720;SDS011;9489;50.948;3.114;2024-03-23T13:25:54;3.08;;;1.35;;
18720;SDS011;9489;50.948;3.114;2024-03-23T13:28:21;6.10;;;1.98;;
18720;SDS011;9489;50.948;3.114;2024-03-23T13:30:53;5.70;;;2.17;;
18720;SDS011;9489;50.948;3.114;2024-03-23T13:33:20;6.20;;;2.05;;
18720;SDS011;9489;50.948;3.114;2024-03-23T13:35:52;5.50;;;2.05;;
18720;SDS011;9489;50.948;3.114;2024-03-23T13:38:19;4.18;;;1.50;;
18720;SDS011;9489;50.948;3.114;2024-03-23T13:40:55;7.68;;;2.53;;
18720;SDS011;9489;50.948;3.114;2024-03-23T13:43:21;5.93;;;1.83;;
18720;SDS011;9489;50.948;3.114;2024-03-23T13:45:48;4.60;;;1.50;;
18720;SDS011;9489;50.948;3.114;2024-03-23T13:48:18;4.25;;;1.30;;
18720;SDS011;9489;50.948;3.114;2024-03-23T13:50:44;7.07;;;1.40;;
18720;SDS011;9489;50.948;3.114;2024-03-23T13:53:12;9.70;;;2.20;;
18720;SDS011;9489;50.948;3.114;2024-03-23T13:55:43;4.45;;;1.67;;
18720;SDS011;9489;50.948;3.114;2024-03-23T13:58:14;7.82;;;1.98;;
18720;SDS011;9489;50.948;3.114;2024-03-23T14:00:40;8.48;;;2.00;;
18720;SDS011;9489;50.948;3.114;2024-03-23T14:03:09;8.77;;;2.17;;
18720;SDS011;9489;50.948;3.114;2024-03-23T14:05:35;4.38;;;1.73;;
18720;SDS011;9489;50.948;3.114;2024-03-23T14:08:04;9.75;;;2.28;;
18720;SDS011;9489;50.948;3.114;2024-03-23T14:10:30;6.78;;;1.60;;
18720;SDS011;9489;50.948;3.114;2024-03-23T14:12:56;5.13;;;1.92;;
18720;SDS011;9489;50.948;3.114;2024-03-23T14:15:21;5.68;;;2.67;;
18720;SDS011;9489;50.948;3.114;2024-03-23T14:17:47;4.13;;;2.13;;
18720;SDS011;9489;50.948;3.114;2024-03-23T14:20:15;7.70;;;1.98;;
18720;SDS011;9489;50.948;3.114;2024-03-23T14:22:44;5.75;;;2.03;;
18720;SDS011;9489;50.948;3.114;2024-03-23T14:25:09;6.65;;;1.73;;
18720;SDS011;9489;50.948;3.114;2024-03-23T14:27:36;3.40;;;1.60;;
18720;SDS011;9489;50.948;3.114;2024-03-23T14:30:05;2.60;;;1.38;;
18720;SDS011;9489;50.948;3.114;2024-03-23T14:32:31;4.70;;;1.55;;
18720;SDS011;9489;50.948;3.114;2024-03-23T14:35:02;4.15;;;1.70;;
18720;SDS011;9489;50.948;3.114;2024-03-23T14:37:32;4.88;;;1.65;;
18720;SDS011;9489;50.948;3.114;2024-03-23T14:39:58;4.65;;;1.88;;
18720;SDS011;9489;50.948;3.114;2024-03-23T14:42:24;4.18;;;1.40;;
18720;SDS011;9489;50.948;3.114;2024-03-23T14:44:50;6.75;;;1.80;;
18720;SDS011;9489;50.948;3.114;2024-03-23T14:47:17;4.13;;;1.45;;
18720;SDS011;9489;50.948;3.114;2024-03-23T14:49:43;5.35;;;1.77;;
18720;SDS011;9489;50.948;3.114;2024-03-23T14:52:13;5.18;;;1.60;;
18720;SDS011;9489;50.948;3.114;2024-03-23T14:54:39;3.83;;;1.92;;
18720;SDS011;9489;50.948;3.114;2024-03-23T14:57:05;4.47;;;1.65;;
18720;SDS011;9489;50.948;3.114;2024-03-23T14:59:34;5.10;;;2.13;;
18720;SDS011;9489;50.948;3.114;2024-03-23T15:02:00;4.80;;;1.73;;
18720;SDS011;9489;50.948;3.114;2024-03-23T15:04:26;4.93;;;1.75;;
18720;SDS011;9489;50.948;3.114;2024-03-23T15:06:51;4.93;;;1.63;;
18720;SDS011;9489;50.948;3.114;2024-03-23T15:09:17;6.65;;;2.00;;
18720;SDS011;9489;50.948;3.114;2024-03-23T15:11:43;5.50;;;2.17;;
18720;SDS011;9489;50.948;3.114;2024-03-23T15:14:09;5.65;;;2.25;;
18720;SDS011;9489;50.948;3.114;2024-03-23T15:16:36;8.02;;;1.75;;
18720;SDS011;9489;50.948;3.114;2024-03-23T15:19:02;5.45;;;2.38;;
18720;SDS011;9489;50.948;3.114;2024-03-23T15:21:27;5.57;;;2.00;;
18720;SDS011;9489;50.948;3.114;2024-03-23T15:23:53;6.32;;;1.80;;
18720;SDS011;9489;50.948;3.114;2024-03-23T15:26:18;6.57;;;2.53;;
18720;SDS011;9489;50.948;3.114;2024-03-23T15:28:47;6.65;;;1.80;;
18720;SDS011;9489;50.948;3.114;2024-03-23T15:31:22;6.70;;;2.38;;
18720;SDS011;9489;50.948;3.114;2024-03-23T15:33:48;6.97;;;1.88;;
18720;SDS011;9489;50.948;3.114;2024-03-23T15:36:14;7.43;;;2.10;;
18720;SDS011;9489;50.948;3.114;2024-03-23T15:38:40;6.95;;;2.13;;
18720;SDS011;9489;50.948;3.114;2024-03-23T15:41:05;8.75;;;2.20;;
18720;SDS011;9489;50.948;3.114;2024-03-23T15:43:31;6.85;;;2.47;;
18720;SDS011;9489;50.948;3.114;2024-03-23T15:45:58;6.72;;;1.88;;
18720;SDS011;9489;50.948;3.114;2024-03-23T15:48:27;8.55;;;2.90;;
18720;SDS011;9489;50.948;3.114;2024-03-23T15:50:54;9.25;;;2.33;;
18720;SDS011;9489;50.948;3.114;2024-03-23T15:53:21;7.18;;;2.00;;
18720;SDS011;9489;50.948;3.114;2024-03-23T15:55:56;10.98;;;3.15;;
18720;SDS011;9489;50.948;3.114;2024-03-23T15:58:29;9.07;;;2.70;;
18720;SDS011;9489;50.948;3.114;2024-03-23T16:00:57;7.25;;;2.30;;
18720;SDS011;9489;50.948;3.114;2024-03-23T16:03:24;6.82;;;1.88;;
18720;SDS011;9489;50.948;3.114;2024-03-23T16:05:58;8.23;;;1.95;;